Time;durP1;ratioP1;P1;durP2;ratioP2;P2;SDS_P1;SDS_P2;PMS_P1;PMS_P2;Temp;Humidity;BMP_temperature;BMP_pressure;BME280_temperature;BME280_humidity;BME280_pressure;Samples;Min_cycle;Max_cycle;Signal;HPM_P1;HPM_P2
2023/05/12 00:03:10;;;;;;;7.53;6.82;;;;;;;;;;10030119;28;20409;-66
2023/05/12 00:08:05;;;;;;;7.03;6.43;;;;;;;;;;10031035;28;20053;-66
2023/05/12 00:12:59;;;;;;;7.78;7.07;;;;;;;;;;10031476;28;20058;-66
2023/05/12 00:17:52;;;;;;;7.82;6.45;;;;;;;;;;10045417;28;20120;-66
2023/05/12 00:22:44;;;;;;;7.38;6.68;;;;;;;;;;10031661;28;20129;-65
2023/05/12 00:27:37;;;;;;;7.93;7.22;;;;;;;;;;10030437;28;20118;-67
2023/05/12 00:32:31;;;;;;;8.50;7.03;;;;;;;;;;10040261;28;20129;-67
2023/05/12 00:37:24;;;;;;;7.43;6.80;;;;;;;;;;10028938;28;20104;-66
2023/05/12 00:42:17;;;;;;;8.02;6.95;;;;;;;;;;10055741;28;20069;-66
2023/05/12 00:47:09;;;;;;;7.25;6.65;;;;;;;;;;10027897;28;20060;-66
2023/05/12 00:52:05;;;;;;;8.23;7.40;;;;;;;;;;10051551;28;20108;-66
2023/05/12 00:56:57;;;;;;;9.02;8.10;;;;;;;;;;10028852;28;20154;-66
2023/05/12 01:01:51;;;;;;;9.38;8.35;;;;;;;;;;10054941;28;20076;-66
2023/05/12 01:06:47;;;;;;;8.18;7.38;;;;;;;;;;10030262;28;20050;-66
2023/05/12 01:11:40;;;;;;;8.48;7.72;;;;;;;;;;10043928;28;20052;-65
2023/05/12 01:16:36;;;;;;;8.77;7.90;;;;;;;;;;10026880;28;20559;-66
2023/05/12 01:21:28;;;;;;;9.50;8.70;;;;;;;;;;10027042;28;20046;-66
2023/05/12 01:26:21;;;;;;;9.40;8.60;;;;;;;;;;10038422;28;20081;-66
2023/05/12 01:31:14;;;;;;;10.63;8.35;;;;;;;;;;10037499;28;20120;-66
2023/05/12 01:36:10;;;;;;;8.55;7.85;;;;;;;;;;10027243;28;20077;-66
2023/05/12 01:41:04;;;;;;;9.13;8.32;;;;;;;;;;10028035;28;20050;-66
2023/05/12 01:45:57;;;;;;;9.13;8.23;;;;;;;;;;10034756;28;20058;-66
2023/05/12 01:50:52;;;;;;;16.98;8.57;;;;;;;;;;10036730;28;20497;-66
2023/05/12 01:55:45;;;;;;;9.43;8.52;;;;;;;;;;10026525;28;20571;-65
2023/05/12 02:00:38;;;;;;;10.05;8.95;;;;;;;;;;10035392;28;20054;-66
2023/05/12 02:05:38;;;;;;;10.13;9.23;;;;;;;;;;10026298;28;20145;-66
2023/05/12 02:10:31;;;;;;;16.45;8.90;;;;;;;;;;10025311;28;20050;-66
2023/05/12 02:15:25;;;;;;;13.57;9.63;;;;;;;;;;10034361;28;20053;-65
2023/05/12 02:20:19;;;;;;;9.48;8.50;;;;;;;;;;10030320;28;20053;-67
2023/05/12 02:25:13;;;;;;;10.85;9.70;;;;;;;;;;10038077;28;20052;-66
2023/05/12 02:30:08;;;;;;;10.50;9.50;;;;;;;;;;10025737;28;20038;-65
2023/05/12 02:35:01;;;;;;;10.55;9.15;;;;;;;;;;10026841;28;20050;-65
2023/05/12 02:39:55;;;;;;;9.23;8.32;;;;;;;;;;10024561;28;20061;-67
2023/05/12 02:44:49;;;;;;;10.27;9.25;;;;;;;;;;10024083;28;20061;-66
2023/05/12 02:49:42;;;;;;;10.38;9.45;;;;;;;;;;10024727;28;20057;-67
2023/05/12 02:54:36;;;;;;;13.35;9.63;;;;;;;;;;10024673;28;20444;-66
2023/05/12 02:59:29;;;;;;;11.32;10.13;;;;;;;;;;10028923;28;20058;-66
2023/05/12 03:04:23;;;;;;;11.25;9.43;;;;;;;;;;10033965;28;20042;-66
2023/05/12 03:09:16;;;;;;;12.45;10.50;;;;;;;;;;10034177;28;20064;-66
2023/05/12 03:14:10;;;;;;;11.35;10.23;;;;;;;;;;10034787;28;20452;-64
2023/05/12 03:19:05;;;;;;;10.93;9.82;;;;;;;;;;10036965;28;20107;-65
2023/05/12 03:23:58;;;;;;;14.73;10.13;;;;;;;;;;10041665;28;20107;-65
2023/05/12 03:28:52;;;;;;;10.95;9.85;;;;;;;;;;10047684;28;20061;-65
2023/05/12 03:33:45;;;;;;;11.00;9.50;;;;;;;;;;10040270;28;20049;-64
2023/05/12 03:38:39;;;;;;;11.85;10.65;;;;;;;;;;10024180;28;20061;-64
2023/05/12 03:43:32;;;;;;;12.13;10.85;;;;;;;;;;10030611;28;20046;-66
2023/05/12 03:48:25;;;;;;;11.35;10.20;;;;;;;;;;10032255;28;20481;-65
2023/05/12 03:53:18;;;;;;;10.23;9.13;;;;;;;;;;10022656;28;20049;-65
2023/05/12 03:58:11;;;;;;;11.10;10.00;;;;;;;;;;10030456;28;20064;-66
2023/05/12 04:03:04;;;;;;;12.35;10.38;;;;;;;;;;10031378;28;20050;-65
2023/05/12 04:07:57;;;;;;;11.82;10.18;;;;;;;;;;10029298;28;20514;-65
2023/05/12 04:12:51;;;;;;;10.85;9.65;;;;;;;;;;10043702;28;20124;-65
2023/05/12 04:17:43;;;;;;;10.50;9.50;;;;;;;;;;10029700;28;20054;-65
2023/05/12 04:22:37;;;;;;;11.43;10.27;;;;;;;;;;10036190;28;20121;-65
2023/05/12 04:27:31;;;;;;;13.10;9.43;;;;;;;;;;10030205;28;20156;-66
2023/05/12 04:32:24;;;;;;;11.32;10.20;;;;;;;;;;10030846;28;20084;-65
2023/05/12 04:37:21;;;;;;;11.07;8.85;;;;;;;;;;10032226;28;20058;-65
2023/05/12 04:42:15;;;;;;;10.82;6.35;;;;;;;;;;10037654;28;20053;-66
2023/05/12 04:47:07;;;;;;;7.97;6.43;;;;;;;;;;10031944;28;20408;-65
2023/05/12 04:52:01;;;;;;;7.22;6.63;;;;;;;;;;10016611;28;20049;-65
2023/05/12 04:56:54;;;;;;;7.45;6.13;;;;;;;;;;10028586;28;20068;-65
2023/05/12 05:01:47;;;;;;;9.18;8.27;;;;;;;;;;10029443;28;20050;-65
2023/05/12 05:06:40;;;;;;;7.80;7.10;;;;;;;;;;10027640;28;20054;-65
2023/05/12 05:11:34;;;;;;;8.75;7.90;;;;;;;;;;10040112;28;20505;-65
2023/05/12 05:16:28;;;;;;;8.05;7.22;;;;;;;;;;10010472;28;20125;-65
2023/05/12 05:21:22;;;;;;;8.95;8.05;;;;;;;;;;10025875;28;20049;-67
2023/05/12 05:26:15;;;;;;;11.00;9.90;;;;;;;;;;10046595;28;20096;-64
2023/05/12 05:31:15;;;;;;;11.18;10.10;;;;;;;;;;10018569;28;20159;-64
2023/05/12 05:36:08;;;;;;;12.48;10.05;;;;;;;;;;10030503;28;20058;-64
2023/05/12 05:41:02;;;;;;;12.13;10.38;;;;;;;;;;10028580;28;20048;-65
2023/05/12 05:45:58;;;;;;;12.10;9.90;;;;;;;;;;10027185;28;20054;-63
2023/05/12 05:50:51;;;;;;;10.77;9.68;;;;;;;;;;10020185;28;20065;-64
2023/05/12 05:55:47;;;;;;;13.88;10.82;;;;;;;;;;10033106;28;20053;-62
2023/05/12 06:00:42;;;;;;;12.23;10.88;;;;;;;;;;10025363;28;20061;-62
2023/05/12 06:05:35;;;;;;;12.13;10.82;;;;;;;;;;10028644;28;20072;-62
2023/05/12 06:10:29;;;;;;;10.52;9.43;;;;;;;;;;10022705;28;20133;-63
2023/05/12 06:15:22;;;;;;;10.48;9.43;;;;;;;;;;10040736;28;20136;-64
2023/05/12 06:20:16;;;;;;;10.98;9.88;;;;;;;;;;10039184;28;20042;-63
2023/05/12 06:25:10;;;;;;;14.85;9.30;;;;;;;;;;10040382;28;20076;-63
2023/05/12 06:30:03;;;;;;;6.93;6.22;;;;;;;;;;10042922;28;20045;-63
2023/05/12 06:34:57;;;;;;;7.22;5.88;;;;;;;;;;10047786;28;20076;-63
2023/05/12 06:39:51;;;;;;;4.53;4.00;;;;;;;;;;10020762;28;20080;-63
2023/05/12 06:44:45;;;;;;;4.80;4.05;;;;;;;;;;10035610;28;20046;-63
2023/05/12 06:49:37;;;;;;;4.13;3.65;;;;;;;;;;10037428;28;20064;-63
2023/05/12 06:54:31;;;;;;;8.20;4.15;;;;;;;;;;10044852;28;20060;-63
2023/05/12 06:59:25;;;;;;;3.28;2.97;;;;;;;;;;10032965;28;20456;-63
2023/05/12 07:04:18;;;;;;;3.50;3.20;;;;;;;;;;10039724;28;20053;-63
2023/05/12 07:09:12;;;;;;;3.97;3.58;;;;;;;;;;10045389;28;20050;-63
2023/05/12 07:14:06;;;;;;;6.25;4.00;;;;;;;;;;10049018;28;20064;-64
2023/05/12 07:18:59;;;;;;;5.05;4.28;;;;;;;;;;10054320;28;20631;-65
2023/05/12 07:23:52;;;;;;;4.78;4.38;;;;;;;;;;10035086;28;20060;-65
2023/05/12 07:28:46;;;;;;;3.90;3.58;;;;;;;;;;10046086;28;20068;-65
2023/05/12 07:33:39;;;;;;;3.85;3.28;;;;;;;;;;10043450;28;20068;-65
2023/05/12 07:38:33;;;;;;;4.53;2.53;;;;;;;;;;10032356;28;20080;-65
2023/05/12 07:43:26;;;;;;;6.35;5.85;;;;;;;;;;10030226;28;20104;-66
2023/05/12 07:48:20;;;;;;;5.50;5.10;;;;;;;;;;10031574;28;20049;-66
2023/05/12 07:53:13;;;;;;;13.10;6.60;;;;;;;;;;10022830;28;20080;-66
2023/05/12 07:58:06;;;;;;;4.32;3.80;;;;;;;;;;10028651;28;20050;-65
2023/05/12 08:03:00;;;;;;;3.72;3.20;;;;;;;;;;10024140;28;20053;-65
2023/05/12 08:07:53;;;;;;;4.55;2.90;;;;;;;;;;10032451;28;20054;-66
2023/05/12 08:12:46;;;;;;;3.08;2.78;;;;;;;;;;10029312;28;20042;-66
2023/05/12 08:17:40;;;;;;;5.63;2.88;;;;;;;;;;10022411;28;20559;-66
2023/05/12 08:22:34;;;;;;;3.08;2.30;;;;;;;;;;10038411;28;20125;-67
2023/05/12 08:27:28;;;;;;;1.48;1.38;;;;;;;;;;10039417;28;20096;-67
2023/05/12 08:32:21;;;;;;;1.50;1.40;;;;;;;;;;10036853;28;20080;-66
2023/05/12 08:37:15;;;;;;;5.13;1.77;;;;;;;;;;10026055;28;20104;-66
2023/05/12 08:42:25;;;;;;;2.55;1.73;;;;;;;;;;10039578;28;20056;-66
2023/05/12 08:47:21;;;;;;;2.50;1.70;;;;;;;;;;10028497;28;20054;-66
2023/05/12 08:52:17;;;;;;;2.25;2.00;;;;;;;;;;10037304;28;20465;-66
2023/05/12 08:57:10;;;;;;;2.47;1.85;;;;;;;;;;10013724;28;20058;-66
2023/05/12 09:02:05;;;;;;;1.77;1.63;;;;;;;;;;10025536;28;20060;-66
2023/05/12 09:07:00;;;;;;;3.45;1.70;;;;;;;;;;10023947;28;20057;-66
2023/05/12 09:11:55;;;;;;;1.85;1.65;;;;;;;;;;10035873;28;20057;-67
2023/05/12 09:16:51;;;;;;;1.55;1.20;;;;;;;;;;10038607;28;20054;-67
2023/05/12 09:21:45;;;;;;;2.40;2.20;;;;;;;;;;10028271;28;20080;-67
2023/05/12 09:26:48;;;;;;;1.73;1.40;;;;;;;;;;10043788;28;20485;-67
2023/05/12 09:31:51;;;;;;;4.05;1.30;;;;;;;;;;10040646;28;20416;-67
2023/05/12 09:36:57;;;;;;;1.88;1.13;;;;;;;;;;10011319;28;20080;-77
2023/05/12 09:41:51;;;;;;;2.80;1.35;;;;;;;;;;10024658;28;20060;-68
2023/05/12 09:46:46;;;;;;;1.63;1.33;;;;;;;;;;10019821;28;20064;-69
2023/05/12 09:51:40;;;;;;;1.58;1.48;;;;;;;;;;10021236;28;20057;-68
2023/05/12 09:56:35;;;;;;;1.65;1.55;;;;;;;;;;10018641;28;20073;-68
2023/05/12 10:01:30;;;;;;;1.40;1.30;;;;;;;;;;10018817;28;20078;-68
2023/05/12 10:06:32;;;;;;;1.55;1.45;;;;;;;;;;10017164;28;20524;-68
2023/05/12 10:11:27;;;;;;;3.38;1.60;;;;;;;;;;10017900;28;20121;-67
2023/05/12 10:16:21;;;;;;;2.95;2.00;;;;;;;;;;10020417;28;20049;-67
2023/05/12 10:21:15;;;;;;;4.57;1.90;;;;;;;;;;10021708;28;20096;-67
2023/05/12 10:26:10;;;;;;;1.92;0.90;;;;;;;;;;10014347;28;20042;-66
2023/05/12 10:31:06;;;;;;;2.88;0.85;;;;;;;;;;10016995;28;20050;-66
2023/05/12 10:35:58;;;;;;;0.55;0.55;;;;;;;;;;10040826;28;20424;-66
2023/05/12 10:40:58;;;;;;;0.80;0.80;;;;;;;;;;10027591;28;20420;-67
2023/05/12 10:46:17;;;;;;;1.48;0.70;;;;;;;;;;10035380;28;20049;-67
2023/05/12 10:51:10;;;;;;;5.68;1.05;;;;;;;;;;10023969;28;20045;-66
2023/05/12 10:56:05;;;;;;;1.88;0.95;;;;;;;;;;10042639;28;20416;-67
2023/05/12 11:01:05;;;;;;;6.88;1.00;;;;;;;;;;10025895;28;20413;-67
2023/05/12 11:06:04;;;;;;;4.93;1.48;;;;;;;;;;10038599;28;20046;-67
2023/05/12 11:10:58;;;;;;;5.07;0.98;;;;;;;;;;10015462;28;20068;-69
2023/05/12 11:15:52;;;;;;;1.05;0.90;;;;;;;;;;10022009;28;20053;-66
2023/05/12 11:20:46;;;;;;;4.03;1.00;;;;;;;;;;10029563;28;20057;-65
2023/05/12 11:25:39;;;;;;;3.00;1.27;;;;;;;;;;10030441;28;20500;-65
2023/05/12 11:30:36;;;;;;;2.55;1.20;;;;;;;;;;10024985;28;20424;-65
2023/05/12 11:35:31;;;;;;;1.75;1.05;;;;;;;;;;10035786;28;20531;-66
2023/05/12 11:40:25;;;;;;;2.05;1.00;;;;;;;;;;10032468;28;20425;-65
2023/05/12 11:45:47;;;;;;;3.03;0.75;;;;;;;;;;10030995;28;20054;-65
2023/05/12 11:50:45;;;;;;;1.42;0.80;;;;;;;;;;10021260;28;20144;-65
2023/05/12 11:55:52;;;;;;;1.43;1.10;;;;;;;;;;10028039;28;20062;-65
2023/05/12 12:00:46;;;;;;;1.77;1.05;;;;;;;;;;10026262;28;20396;-65
2023/05/12 12:05:44;;;;;;;0.95;0.90;;;;;;;;;;10035974;28;20045;-65
2023/05/12 12:10:37;;;;;;;2.67;1.52;;;;;;;;;;10019862;28;20053;-64
2023/05/12 12:15:32;;;;;;;3.13;1.35;;;;;;;;;;10028971;28;20042;-65
2023/05/12 12:20:28;;;;;;;3.95;2.03;;;;;;;;;;10028339;28;20076;-64
2023/05/12 12:25:22;;;;;;;2.47;2.10;;;;;;;;;;10036925;28;20046;-64
2023/05/12 12:30:15;;;;;;;4.85;3.03;;;;;;;;;;10029720;28;20057;-65
2023/05/12 12:35:10;;;;;;;5.65;4.25;;;;;;;;;;10030005;28;20083;-64
2023/05/12 12:40:07;;;;;;;7.03;4.68;;;;;;;;;;10030017;28;20046;-65
2023/05/12 12:45:22;;;;;;;5.72;2.58;;;;;;;;;;10030414;28;20050;-65
2023/05/12 12:50:14;;;;;;;2.97;1.98;;;;;;;;;;10030753;28;20045;-65
2023/05/12 12:55:09;;;;;;;2.05;1.63;;;;;;;;;;10027290;28;20062;-65
2023/05/12 13:00:04;;;;;;;6.57;2.80;;;;;;;;;;10028227;28;20058;-65
2023/05/12 13:05:02;;;;;;;7.75;3.30;;;;;;;;;;10024302;28;20041;-65
2023/05/12 13:09:55;;;;;;;13.77;2.50;;;;;;;;;;10032276;28;20073;-65
2023/05/12 13:14:48;;;;;;;6.90;1.95;;;;;;;;;;10033332;28;20053;-65
2023/05/12 13:19:42;;;;;;;3.10;1.63;;;;;;;;;;10029300;28;20050;-65
2023/05/12 13:24:35;;;;;;;3.95;2.10;;;;;;;;;;10027592;28;20086;-66
2023/05/12 13:29:29;;;;;;;2.10;1.67;;;;;;;;;;10035034;28;20104;-65
2023/05/12 13:34:22;;;;;;;1.65;1.45;;;;;;;;;;10028296;28;20050;-65
2023/05/12 13:39:15;;;;;;;3.22;0.98;;;;;;;;;;10023427;28;20053;-66
2023/05/12 13:44:11;;;;;;;2.90;1.38;;;;;;;;;;10026692;28;20479;-65
2023/05/12 13:49:05;;;;;;;6.60;1.25;;;;;;;;;;10025623;28;20413;-65
2023/05/12 13:53:59;;;;;;;1.92;1.35;;;;;;;;;;10024566;28;20283;-64
2023/05/12 13:58:52;;;;;;;1.73;1.10;;;;;;;;;;10025907;28;20402;-64
2023/05/12 14:03:45;;;;;;;2.28;1.52;;;;;;;;;;10041376;28;20543;-64
2023/05/12 14:08:40;;;;;;;5.43;1.52;;;;;;;;;;10024365;28;20058;-64
2023/05/12 14:13:33;;;;;;;2.20;1.33;;;;;;;;;;10026245;28;20382;-64
2023/05/12 14:18:26;;;;;;;1.85;1.33;;;;;;;;;;10027606;28;20045;-64
2023/05/12 14:23:20;;;;;;;4.13;2.05;;;;;;;;;;10023340;28;20050;-64
2023/05/12 14:28:12;;;;;;;3.58;2.30;;;;;;;;;;10018694;28;20128;-64
2023/05/12 14:33:05;;;;;;;2.10;1.90;;;;;;;;;;10036239;28;20485;-64
2023/05/12 14:37:58;;;;;;;3.00;2.30;;;;;;;;;;10020592;28;20045;-64
2023/05/12 14:42:53;;;;;;;3.63;2.35;;;;;;;;;;10031079;28;20049;-65
2023/05/12 14:47:47;;;;;;;4.22;2.17;;;;;;;;;;10024293;28;20057;-64
2023/05/12 14:52:41;;;;;;;2.83;1.65;;;;;;;;;;10020167;28;20120;-64
2023/05/12 14:57:36;;;;;;;2.22;1.48;;;;;;;;;;10037261;28;20100;-64
2023/05/12 15:02:29;;;;;;;2.05;1.10;;;;;;;;;;10026916;28;20086;-64
2023/05/12 15:07:24;;;;;;;1.35;1.27;;;;;;;;;;10047224;28;20103;-64
2023/05/12 15:12:16;;;;;;;4.03;1.20;;;;;;;;;;10035773;28;20132;-65
2023/05/12 15:17:11;;;;;;;1.13;1.00;;;;;;;;;;10031519;28;20057;-64
2023/05/12 15:22:06;;;;;;;1.40;1.10;;;;;;;;;;10029233;28;20046;-65
2023/05/12 15:26:59;;;;;;;1.30;0.77;;;;;;;;;;10033896;28;20133;-64
2023/05/12 15:31:51;;;;;;;1.20;1.00;;;;;;;;;;10033036;28;20057;-64
2023/05/12 15:36:47;;;;;;;2.10;1.10;;;;;;;;;;10026994;28;20061;-64
2023/05/12 15:41:49;;;;;;;1.58;1.45;;;;;;;;;;10028173;28;20056;-69
2023/05/12 15:46:42;;;;;;;2.03;1.67;;;;;;;;;;10032466;28;20049;-64
2023/05/12 15:51:36;;;;;;;1.83;1.73;;;;;;;;;;10033530;28;20050;-64
2023/05/12 15:56:29;;;;;;;3.47;1.50;;;;;;;;;;10033367;28;20048;-63
2023/05/12 16:01:23;;;;;;;2.20;2.00;;;;;;;;;;10034726;28;20057;-63
2023/05/12 16:06:16;;;;;;;4.53;1.90;;;;;;;;;;10031298;28;20049;-63
2023/05/12 16:11:11;;;;;;;3.35;2.35;;;;;;;;;;10025291;28;20054;-64
2023/05/12 16:16:06;;;;;;;2.28;2.15;;;;;;;;;;10026030;28;20069;-64
2023/05/12 16:21:03;;;;;;;2.97;2.53;;;;;;;;;;10025981;28;20119;-64
2023/05/12 16:25:56;;;;;;;4.93;2.53;;;;;;;;;;10039102;28;20073;-64
2023/05/12 16:30:49;;;;;;;3.63;2.72;;;;;;;;;;10039656;28;20165;-64
2023/05/12 16:35:43;;;;;;;3.25;2.50;;;;;;;;;;10052488;28;20103;-63
2023/05/12 16:40:36;;;;;;;2.80;1.92;;;;;;;;;;10046021;28;20495;-63
2023/05/12 16:45:29;;;;;;;2.83;2.30;;;;;;;;;;10041631;28;20057;-63
2023/05/12 16:50:23;;;;;;;3.65;1.85;;;;;;;;;;10018278;28;20050;-63
2023/05/12 16:55:17;;;;;;;3.13;2.10;;;;;;;;;;10030405;28;20082;-64
2023/05/12 17:00:12;;;;;;;2.88;2.15;;;;;;;;;;10045751;28;20045;-63
2023/05/12 17:05:06;;;;;;;3.65;2.00;;;;;;;;;;10032346;28;20050;-63
2023/05/12 17:10:00;;;;;;;3.13;2.25;;;;;;;;;;10036697;28;20472;-63
2023/05/12 17:14:54;;;;;;;2.35;1.70;;;;;;;;;;10037464;28;20505;-62
2023/05/12 17:19:58;;;;;;;2.53;1.70;;;;;;;;;;10037243;28;20085;-62
2023/05/12 17:24:54;;;;;;;8.13;1.58;;;;;;;;;;10034199;28;20065;-63
2023/05/12 17:29:47;;;;;;;2.38;1.27;;;;;;;;;;10039762;28;20108;-62
2023/05/12 17:34:40;;;;;;;3.25;1.40;;;;;;;;;;10030182;28;20061;-62
2023/05/12 17:39:33;;;;;;;1.85;1.58;;;;;;;;;;10034601;28;20052;-63
2023/05/12 17:44:28;;;;;;;3.38;1.40;;;;;;;;;;10034093;28;20042;-63
2023/05/12 17:49:21;;;;;;;1.60;1.50;;;;;;;;;;10040890;28;20129;-63
2023/05/12 17:54:15;;;;;;;3.17;2.15;;;;;;;;;;10047850;28;20062;-62
2023/05/12 17:59:10;;;;;;;3.55;2.15;;;;;;;;;;10032916;28;20049;-63
2023/05/12 18:04:04;;;;;;;3.08;2.15;;;;;;;;;;10026993;28;20073;-63
2023/05/12 18:08:57;;;;;;;2.75;1.90;;;;;;;;;;10031806;28;20045;-63
2023/05/12 18:13:50;;;;;;;2.97;1.90;;;;;;;;;;10029045;28;20116;-62
2023/05/12 18:18:46;;;;;;;2.13;2.00;;;;;;;;;;10013364;28;20057;-62
2023/05/12 18:23:40;;;;;;;3.60;2.40;;;;;;;;;;10029183;28;20064;-63
2023/05/12 18:28:33;;;;;;;5.50;2.28;;;;;;;;;;10025125;28;20104;-63
2023/05/12 18:33:27;;;;;;;4.82;2.50;;;;;;;;;;10032986;28;20046;-62
2023/05/12 18:38:21;;;;;;;4.68;3.13;;;;;;;;;;10039889;28;20045;-61
2023/05/12 18:43:15;;;;;;;3.63;2.33;;;;;;;;;;10034999;28;20054;-62
2023/05/12 18:48:08;;;;;;;3.40;1.83;;;;;;;;;;10035720;28;20144;-62
2023/05/12 18:53:03;;;;;;;18.55;7.25;;;;;;;;;;10035342;28;20085;-62
2023/05/12 18:57:56;;;;;;;11.50;5.50;;;;;;;;;;10033158;28;20107;-62
2023/05/12 19:02:49;;;;;;;3.95;2.50;;;;;;;;;;10039469;28;20433;-62
2023/05/12 19:07:41;;;;;;;4.78;2.55;;;;;;;;;;10040234;28;20054;-62
2023/05/12 19:12:35;;;;;;;3.83;3.10;;;;;;;;;;10042447;28;20107;-62
2023/05/12 19:17:28;;;;;;;6.25;2.80;;;;;;;;;;10042561;28;20050;-61
2023/05/12 19:22:23;;;;;;;7.03;2.85;;;;;;;;;;10042071;28;20072;-61
2023/05/12 19:27:17;;;;;;;5.32;3.78;;;;;;;;;;10040612;28;20057;-61
2023/05/12 19:32:12;;;;;;;7.35;4.95;;;;;;;;;;10032283;28;20133;-61
2023/05/12 19:37:06;;;;;;;5.40;4.10;;;;;;;;;;10046658;28;20092;-62
2023/05/12 19:42:00;;;;;;;7.68;3.42;;;;;;;;;;10028011;28;20053;-64
2023/05/12 19:46:57;;;;;;;4.80;2.90;;;;;;;;;;10026810;28;20046;-64
2023/05/12 19:51:52;;;;;;;4.63;3.17;;;;;;;;;;10021297;28;20061;-63
2023/05/12 19:56:45;;;;;;;5.50;3.72;;;;;;;;;;10037608;28;20056;-63
2023/05/12 20:01:39;;;;;;;7.95;5.15;;;;;;;;;;10025395;28;20050;-63
2023/05/12 20:06:33;;;;;;;30.02;15.88;;;;;;;;;;10023281;28;20042;-62
2023/05/12 20:11:27;;;;;;;13.35;7.72;;;;;;;;;;10019875;28;20125;-64
2023/05/12 20:16:20;;;;;;;7.38;4.93;;;;;;;;;;10021379;28;20116;-63
2023/05/12 20:21:14;;;;;;;4.63;3.85;;;;;;;;;;10007558;28;20046;-64
2023/05/12 20:26:08;;;;;;;8.13;3.90;;;;;;;;;;10013960;28;20046;-63
2023/05/12 20:31:02;;;;;;;5.53;5.03;;;;;;;;;;10009269;28;20061;-64
2023/05/12 20:35:56;;;;;;;4.85;4.35;;;;;;;;;;10012925;28;20198;-63
2023/05/12 20:40:51;;;;;;;5.55;4.18;;;;;;;;;;10020997;28;20052;-64
2023/05/12 20:45:46;;;;;;;7.13;5.18;;;;;;;;;;10016479;28;20108;-64
2023/05/12 20:50:43;;;;;;;6.88;5.32;;;;;;;;;;10014487;28;20051;-64
2023/05/12 20:55:38;;;;;;;6.35;5.57;;;;;;;;;;10016357;28;20085;-64
2023/05/12 21:00:34;;;;;;;7.10;6.03;;;;;;;;;;10022160;28;20042;-63
2023/05/12 21:05:29;;;;;;;10.15;7.65;;;;;;;;;;10018786;28;20065;-63
2023/05/12 21:10:22;;;;;;;11.38;7.20;;;;;;;;;;10035244;28;20085;-64
2023/05/12 21:15:16;;;;;;;7.03;6.32;;;;;;;;;;10018915;28;20053;-64
2023/05/12 21:20:11;;;;;;;6.65;5.90;;;;;;;;;;10016847;28;20045;-63
2023/05/12 21:25:06;;;;;;;5.55;4.15;;;;;;;;;;10016616;28;20046;-63
2023/05/12 21:30:01;;;;;;;8.23;4.65;;;;;;;;;;10019819;28;20128;-63
2023/05/12 21:34:56;;;;;;;6.95;5.80;;;;;;;;;;10017992;28;20045;-65
2023/05/12 21:39:50;;;;;;;6.25;5.30;;;;;;;;;;10017892;28;20060;-63
2023/05/12 21:44:44;;;;;;;8.43;6.40;;;;;;;;;;10015134;28;20404;-62
2023/05/12 21:49:38;;;;;;;9.02;5.53;;;;;;;;;;10018286;28;20054;-64
2023/05/12 21:54:32;;;;;;;5.60;5.03;;;;;;;;;;10030996;28;20116;-64
2023/05/12 21:59:27;;;;;;;6.18;5.57;;;;;;;;;;10019539;28;20046;-64
2023/05/12 22:04:22;;;;;;;7.97;6.28;;;;;;;;;;10018226;28;20116;-65
2023/05/12 22:09:16;;;;;;;8.02;7.22;;;;;;;;;;10018918;28;20054;-66
2023/05/12 22:14:10;;;;;;;10.18;6.43;;;;;;;;;;10021510;28;20128;-65
2023/05/12 22:19:03;;;;;;;7.43;6.53;;;;;;;;;;10025467;28;20132;-65
2023/05/12 22:23:57;;;;;;;11.50;7.25;;;;;;;;;;10015626;28;20054;-65
2023/05/12 22:28:51;;;;;;;13.77;8.38;;;;;;;;;;10015393;28;20090;-64
2023/05/12 22:33:46;;;;;;;8.60;7.30;;;;;;;;;;10019377;28;20053;-65
2023/05/12 22:38:39;;;;;;;7.88;6.22;;;;;;;;;;10015429;28;20103;-65
2023/05/12 22:43:33;;;;;;;8.25;6.20;;;;;;;;;;10010725;28;20057;-65
2023/05/12 22:48:27;;;;;;;8.15;6.70;;;;;;;;;;10019584;28;20111;-65
2023/05/12 22:53:22;;;;;;;9.48;7.03;;;;;;;;;;10012267;28;20145;-64
2023/05/12 22:58:16;;;;;;;10.18;7.30;;;;;;;;;;10011493;28;20424;-65
2023/05/12 23:03:09;;;;;;;32.30;7.30;;;;;;;;;;10027297;28;20436;-64
2023/05/12 23:08:03;;;;;;;9.88;7.13;;;;;;;;;;10009612;28;20042;-64
2023/05/12 23:12:56;;;;;;;8.63;6.97;;;;;;;;;;10026969;28;20046;-64
2023/05/12 23:17:49;;;;;;;7.03;6.32;;;;;;;;;;10012626;28;20485;-64
2023/05/12 23:22:44;;;;;;;6.40;5.65;;;;;;;;;;10018050;28;20050;-64
2023/05/12 23:27:37;;;;;;;8.63;5.85;;;;;;;;;;10020892;28;20539;-64
2023/05/12 23:32:30;;;;;;;6.47;5.90;;;;;;;;;;10033770;28;20049;-64
2023/05/12 23:37:25;;;;;;;6.82;5.80;;;;;;;;;;10017175;28;20515;-64
2023/05/12 23:42:19;;;;;;;6.15;5.00;;;;;;;;;;10036192;28;20072;-65
2023/05/12 23:47:12;;;;;;;9.07;5.20;;;;;;;;;;10041973;28;20508;-65
2023/05/12 23:52:05;;;;;;;7.03;5.05;;;;;;;;;;10042001;28;20049;-65
2023/05/12 23:56:59;;;;;;;8.25;5.13;;;;;;;;;;10043860;28;20052;-65
